createdAt,value
2023-05-22T04:39:18.720Z,77.91
2023-05-22T04:41:46.123Z,77.77
2023-05-22T04:44:14.435Z,77.59
2023-05-22T04:46:42.439Z,76.92
2023-05-22T04:49:09.479Z,76.51
2023-05-22T04:51:36.734Z,75.80
2023-05-22T04:54:03.864Z,75.38
2023-05-22T04:56:36.880Z,75.28
2023-05-22T04:59:05.810Z,75.09
2023-05-22T05:01:35.139Z,74.86
2023-05-22T05:04:03.326Z,74.16
2023-05-22T05:06:30.495Z,74.15
2023-05-22T05:08:57.446Z,74.07
2023-05-22T05:11:31.385Z,73.95
2023-05-22T05:13:58.335Z,73.71
2023-05-22T05:16:27.973Z,73.78
2023-05-22T05:18:57.237Z,73.33
2023-05-22T05:21:28.208Z,72.86
2023-05-22T05:23:59.035Z,72.13
2023-05-22T05:26:27.503Z,70.96
2023-05-22T05:28:56.778Z,70.17
2023-05-22T05:31:31.215Z,69.63
2023-05-22T05:35:30.217Z,68.93
2023-05-22T05:38:34.846Z,68.09
2023-05-22T05:41:39.922Z,67.75
2023-05-22T05:45:09.719Z,67.19
2023-05-22T05:52:20.345Z,66.39
2023-05-22T05:55:12.931Z,65.58
2023-05-22T05:57:40.954Z,64.96
2023-05-22T06:00:12.684Z,64.42
2023-05-22T06:02:50.363Z,63.83
2023-05-22T06:05:32.093Z,63.33
2023-05-22T06:08:16.505Z,62.88
2023-05-22T06:10:45.690Z,62.34
2023-05-22T06:13:23.190Z,61.68
2023-05-22T06:15:52.571Z,61.48
2023-05-22T06:19:10.808Z,61.22
2023-05-22T06:25:46.039Z,60.95
2023-05-22T06:28:49.921Z,60.19
2023-05-22T06:32:32.309Z,60.02
2023-05-22T06:36:20.621Z,59.40
2023-05-22T06:39:16.525Z,59.33
2023-05-22T06:42:14.287Z,58.47
2023-05-22T06:45:01.162Z,58.01
2023-05-22T06:47:40.662Z,58.01
2023-05-22T06:50:12.532Z,57.76
2023-05-22T06:52:44.432Z,57.27
2023-05-22T06:55:18.345Z,56.95
2023-05-22T06:57:56.949Z,56.36
2023-05-22T07:00:26.768Z,56.34
2023-05-22T07:03:23.426Z,55.65
2023-05-22T07:06:09.017Z,55.12
2023-05-22T07:08:42.461Z,55.31
2023-05-22T07:11:21.464Z,54.45
2023-05-22T07:13:48.818Z,54.02
2023-05-22T07:16:16.399Z,54.08
2023-05-22T07:18:55.836Z,53.19
2023-05-22T07:21:41.528Z,53.52
2023-05-22T07:24:52.490Z,52.67
2023-05-22T07:27:42.397Z,53.17
2023-05-22T07:31:05.320Z,52.73
2023-05-22T07:34:21.412Z,52.40
2023-05-22T07:37:19.089Z,52.43
2023-05-22T07:39:47.603Z,52.07
2023-05-22T07:42:15.164Z,51.78
2023-05-22T07:44:47.872Z,51.60
2023-05-22T07:47:15.429Z,52.10
2023-05-22T07:49:43.323Z,51.79
2023-05-22T07:52:11.512Z,51.68
2023-05-22T07:55:16.500Z,51.26
2023-05-22T07:58:39.404Z,50.48
2023-05-22T08:05:48.885Z,50.13
2023-05-22T08:08:34.746Z,50.12
2023-05-22T08:11:04.415Z,49.74
2023-05-22T08:13:50.389Z,49.24
2023-05-22T08:16:44.154Z,49.16
2023-05-22T08:19:11.295Z,49.39
2023-05-22T08:22:08.868Z,49.52
2023-05-22T08:24:41.993Z,49.43
2023-05-22T08:27:27.760Z,48.89
2023-05-22T08:29:55.645Z,48.52
2023-05-22T08:32:32.201Z,48.08
2023-05-22T08:36:01.823Z,48.38
2023-05-22T08:38:41.298Z,47.57
2023-05-22T08:41:09.658Z,47.44
2023-05-22T08:44:44.991Z,47.17
2023-05-22T08:48:15.072Z,46.78
2023-05-22T08:51:35.276Z,46.04
2023-05-22T08:55:05.298Z,46.36
2023-05-22T08:57:58.093Z,46.89
2023-05-22T09:04:54.614Z,46.10
2023-05-22T09:07:33.904Z,46.85
2023-05-22T09:10:07.993Z,46.95
2023-05-22T09:12:35.098Z,47.16
2023-05-22T09:15:16.778Z,47.09
2023-05-22T09:17:43.929Z,46.87
2023-05-22T09:20:13.417Z,47.04
2023-05-22T09:22:40.587Z,47.30
2023-05-22T09:25:08.200Z,47.00
2023-05-22T09:27:38.027Z,46.74
2023-05-22T09:30:09.259Z,46.29
2023-05-22T09:32:38.288Z,45.82
2023-05-22T09:35:12.239Z,44.93
2023-05-22T09:37:50.628Z,44.03
2023-05-22T09:40:19.183Z,44.37
2023-05-22T09:42:57.615Z,44.73
2023-05-22T09:45:39.800Z,44.46
2023-05-22T09:48:08.876Z,44.82
2023-05-22T09:50:36.945Z,44.98
2023-05-22T09:53:09.704Z,44.95
2023-05-22T09:55:36.858Z,45.59
2023-05-22T09:58:06.663Z,45.52
2023-05-22T10:00:37.916Z,46.39
2023-05-22T10:03:16.012Z,47.16
2023-05-22T10:05:52.290Z,47.76
2023-05-22T10:08:30.040Z,48.46
2023-05-22T10:10:58.076Z,50.03
2023-05-22T10:13:25.058Z,51.44
2023-05-22T10:15:52.062Z,52.43
2023-05-22T10:18:19.282Z,53.31
2023-05-22T10:20:49.191Z,53.68
2023-05-22T10:23:17.074Z,53.17
2023-05-22T10:25:45.861Z,50.98
2023-05-22T10:28:15.254Z,50.71
2023-05-22T10:31:06.903Z,50.60
2023-05-22T10:34:06.681Z,48.38
2023-05-22T10:37:09.570Z,47.50
2023-05-22T10:39:49.340Z,46.24
2023-05-22T10:42:16.791Z,45.57
2023-05-22T10:44:43.765Z,44.47
2023-05-22T10:47:12.823Z,43.83
2023-05-22T10:49:46.840Z,43.46
2023-05-22T10:52:15.496Z,43.53
2023-05-22T10:54:43.622Z,43.12
2023-05-22T10:57:14.756Z,43.22
2023-05-22T10:59:42.332Z,43.65
2023-05-22T11:02:20.462Z,44.13
2023-05-22T11:04:47.612Z,44.03
2023-05-22T11:07:15.440Z,44.30
2023-05-22T11:09:43.422Z,44.55
2023-05-22T11:12:23.109Z,44.47
2023-05-22T11:14:56.885Z,43.94
2023-05-22T11:17:30.723Z,43.72
2023-05-22T11:20:02.534Z,46.06
2023-05-22T11:22:31.585Z,48.42
2023-05-22T11:24:58.613Z,48.89
2023-05-22T11:27:25.677Z,49.20
2023-05-22T11:29:53.046Z,49.90
2023-05-22T11:32:22.532Z,49.50
2023-05-22T11:34:52.451Z,49.56
2023-05-22T11:37:19.850Z,49.86
2023-05-22T11:39:56.845Z,49.80
2023-05-22T11:42:24.237Z,50.44
2023-05-22T11:44:51.277Z,51.82
2023-05-22T11:47:18.272Z,51.87
2023-05-22T11:49:45.380Z,52.54
2023-05-22T11:52:12.297Z,53.56
2023-05-22T11:54:39.233Z,54.19
2023-05-22T11:57:08.233Z,55.50
2023-05-22T11:59:36.275Z,58.02
2023-05-22T12:02:04.010Z,60.17
2023-05-22T12:04:37.306Z,61.59
2023-05-22T12:07:05.453Z,64.05
2023-05-22T12:09:33.032Z,65.49
2023-05-22T12:12:00.738Z,66.78
2023-05-22T12:14:29.241Z,67.79
2023-05-22T12:17:00.592Z,68.84
2023-05-22T12:19:28.329Z,70.72
2023-05-22T12:21:56.083Z,72.60
2023-05-22T12:24:23.786Z,74.19
2023-05-22T12:26:52.099Z,75.10
2023-05-22T12:29:22.126Z,75.52
2023-05-22T12:31:50.210Z,74.94
2023-05-22T12:34:21.328Z,74.84
2023-05-22T12:36:49.004Z,74.23
2023-05-22T12:39:17.485Z,74.07
2023-05-22T12:41:45.784Z,74.00
2023-05-22T12:44:15.427Z,73.88
2023-05-22T12:46:43.266Z,73.90
2023-05-22T12:49:11.060Z,73.19
2023-05-22T12:51:38.606Z,72.80
2023-05-22T12:54:06.301Z,72.92
2023-05-22T12:56:34.228Z,73.07
2023-05-22T12:59:01.953Z,72.40
2023-05-22T13:01:29.720Z,68.81
2023-05-22T13:03:57.363Z,66.95
2023-05-22T13:06:24.935Z,65.76
2023-05-22T13:08:52.633Z,65.27
2023-05-22T13:11:23.521Z,65.34
2023-05-22T13:13:51.127Z,65.29
2023-05-22T13:16:18.846Z,65.50
2023-05-22T13:18:46.638Z,65.81
2023-05-22T13:21:14.323Z,66.67
